sensor_id;sensor_type;location;lat;lon;timestamp;pressure;altitude;pressure_sealevel;temperature;humidity
58367;BME280;57745;42.524;12.052;2023-05-24T00:00:08;96296.84;;;21.28;51.04
58367;BME280;57745;42.524;12.052;2023-05-24T00:02:37;96291.56;;;21.30;50.89
58367;BME280;57745;42.524;12.052;2023-05-24T00:05:09;96291.06;;;21.31;50.50
58367;BME280;57745;42.524;12.052;2023-05-24T00:07:37;96296.59;;;21.26;50.59
58367;BME280;57745;42.524;12.052;2023-05-24T00:10:04;96294.59;;;21.26;50.72
58367;BME280;57745;42.524;12.052;2023-05-24T00:12:30;96291.28;;;21.16;50.75
58367;BME280;57745;42.524;12.052;2023-05-24T00:14:56;96290.56;;;21.22;50.84
58367;BME280;57745;42.524;12.052;2023-05-24T00:17:22;96286.81;;;21.19;50.96
58367;BME280;57745;42.524;12.052;2023-05-24T00:19:47;96290.31;;;21.20;50.88
58367;BME280;57745;42.524;12.052;2023-05-24T00:22:12;96292.56;;;21.21;50.88
58367;BME280;57745;42.524;12.052;2023-05-24T00:24:38;96286.78;;;21.13;51.06
58367;BME280;57745;42.524;12.052;2023-05-24T00:27:05;96286.81;;;21.25;50.91
58367;BME280;57745;42.524;12.052;2023-05-24T00:29:30;96294.78;;;21.17;51.11
58367;BME280;57745;42.524;12.052;2023-05-24T00:31:56;96289.53;;;21.13;51.27
58367;BME280;57745;42.524;12.052;2023-05-24T00:34:22;96294.78;;;21.06;51.52
58367;BME280;57745;42.524;12.052;2023-05-24T00:36:47;96298.31;;;21.12;51.16
58367;BME280;57745;42.524;12.052;2023-05-24T00:39:12;96296.03;;;20.99;51.43
58367;BME280;57745;42.524;12.052;2023-05-24T00:41:38;96293.78;;;20.98;51.79
58367;BME280;57745;42.524;12.052;2023-05-24T00:44:03;96289.50;;;20.97;51.91
58367;BME280;57745;42.524;12.052;2023-05-24T00:46:31;96292.75;;;20.95;51.80
58367;BME280;57745;42.524;12.052;2023-05-24T00:48:57;96293.53;;;21.18;51.16
58367;BME280;57745;42.524;12.052;2023-05-24T00:51:24;96296.28;;;21.18;51.08
58367;BME280;57745;42.524;12.052;2023-05-24T00:53:51;96289.75;;;21.04;51.75
58367;BME280;57745;42.524;12.052;2023-05-24T00:56:17;96286.72;;;20.86;52.38
58367;BME280;57745;42.524;12.052;2023-05-24T00:58:43;96292.28;;;21.08;52.10
58367;BME280;57745;42.524;12.052;2023-05-24T01:01:09;96290.00;;;21.06;52.10
58367;BME280;57745;42.524;12.052;2023-05-24T01:03:35;96288.00;;;21.07;52.01
58367;BME280;57745;42.524;12.052;2023-05-24T01:06:02;96281.97;;;21.03;51.79
58367;BME280;57745;42.524;12.052;2023-05-24T01:11:24;96284.50;;;21.17;51.79
58367;BME280;57745;42.524;12.052;2023-05-24T01:14:03;96294.25;;;21.02;51.87
58367;BME280;57745;42.524;12.052;2023-05-24T01:24:52;96292.03;;;21.00;51.64
58367;BME280;57745;42.524;12.052;2023-05-24T01:27:21;96290.00;;;21.06;51.30
58367;BME280;57745;42.524;12.052;2023-05-24T01:29:48;96293.50;;;20.90;52.08
58367;BME280;57745;42.524;12.052;2023-05-24T01:32:20;96292.53;;;21.10;51.60
58367;BME280;57745;42.524;12.052;2023-05-24T01:34:46;96286.25;;;21.15;51.67
58367;BME280;57745;42.524;12.052;2023-05-24T01:37:12;96291.28;;;21.00;51.90
58367;BME280;57745;42.524;12.052;2023-05-24T01:39:38;96290.00;;;20.95;51.83
58367;BME280;57745;42.524;12.052;2023-05-24T01:47:45;96297.25;;;20.87;52.16
58367;BME280;57745;42.524;12.052;2023-05-24T01:50:19;96293.75;;;21.03;51.78
58367;BME280;57745;42.524;12.052;2023-05-24T01:52:49;96291.25;;;20.94;51.76
58367;BME280;57745;42.524;12.052;2023-05-24T01:55:16;96292.78;;;21.01;51.83
58367;BME280;57745;42.524;12.052;2023-05-24T01:57:44;96287.75;;;20.94;51.79
58367;BME280;57745;42.524;12.052;2023-05-24T02:00:13;96295.50;;;20.95;51.76
58367;BME280;57745;42.524;12.052;2023-05-24T02:02:40;96301.53;;;21.05;51.58
58367;BME280;57745;42.524;12.052;2023-05-24T02:05:06;96297.28;;;21.15;51.46
58367;BME280;57745;42.524;12.052;2023-05-24T02:07:31;96296.03;;;21.10;51.83
58367;BME280;57745;42.524;12.052;2023-05-24T02:09:57;96294.53;;;21.09;51.98
58367;BME280;57745;42.524;12.052;2023-05-24T02:12:22;96289.50;;;20.97;51.83
58367;BME280;57745;42.524;12.052;2023-05-24T02:14:47;96283.97;;;21.02;52.13
58367;BME280;57745;42.524;12.052;2023-05-24T02:17:18;96284.50;;;21.01;51.73
58367;BME280;57745;42.524;12.052;2023-05-24T02:19:43;96282.25;;;21.05;51.49
58367;BME280;57745;42.524;12.052;2023-05-24T02:22:08;96283.22;;;20.91;51.73
58367;BME280;57745;42.524;12.052;2023-05-24T02:24:34;96285.25;;;21.01;51.30
58367;BME280;57745;42.524;12.052;2023-05-24T02:27:01;96284.50;;;21.06;51.35
58367;BME280;57745;42.524;12.052;2023-05-24T02:29:26;96283.00;;;21.05;51.22
58367;BME280;57745;42.524;12.052;2023-05-24T02:31:52;96273.94;;;20.94;51.33
58367;BME280;57745;42.524;12.052;2023-05-24T02:34:23;96273.50;;;21.12;51.37
58367;BME280;57745;42.524;12.052;2023-05-24T02:36:49;96273.22;;;20.88;51.92
58367;BME280;57745;42.524;12.052;2023-05-24T02:39:15;96271.41;;;20.79;51.77
58367;BME280;57745;42.524;12.052;2023-05-24T02:41:41;96268.47;;;20.99;50.83
58367;BME280;57745;42.524;12.052;2023-05-24T02:44:06;96265.44;;;20.92;51.34
58367;BME280;57745;42.524;12.052;2023-05-24T02:46:32;96273.69;;;20.92;51.11
58367;BME280;57745;42.524;12.052;2023-05-24T02:48:58;96271.94;;;20.94;51.26
58367;BME280;57745;42.524;12.052;2023-05-24T02:51:23;96268.38;;;20.66;52.10
58367;BME280;57745;42.524;12.052;2023-05-24T02:53:49;96274.94;;;20.85;51.50
58367;BME280;57745;42.524;12.052;2023-05-24T02:56:14;96272.72;;;20.89;51.10
58367;BME280;57745;42.524;12.052;2023-05-24T02:58:42;96273.94;;;20.94;51.13
58367;BME280;57745;42.524;12.052;2023-05-24T03:01:15;96264.19;;;20.87;51.30
58367;BME280;57745;42.524;12.052;2023-05-24T03:03:40;96265.91;;;20.73;51.89
58367;BME280;57745;42.524;12.052;2023-05-24T03:06:06;96269.44;;;20.85;51.52
58367;BME280;57745;42.524;12.052;2023-05-24T03:08:33;96273.47;;;20.95;51.22
58367;BME280;57745;42.524;12.052;2023-05-24T03:10:58;96263.44;;;20.92;51.22
58367;BME280;57745;42.524;12.052;2023-05-24T03:13:24;96269.91;;;20.78;51.50
58367;BME280;57745;42.524;12.052;2023-05-24T03:15:49;96280.94;;;20.78;51.40
58367;BME280;57745;42.524;12.052;2023-05-24T03:18:14;96282.94;;;20.77;51.30
58367;BME280;57745;42.524;12.052;2023-05-24T03:20:40;96277.19;;;20.75;51.57
58367;BME280;57745;42.524;12.052;2023-05-24T03:23:06;96286.22;;;20.87;51.30
58367;BME280;57745;42.524;12.052;2023-05-24T03:25:31;96282.19;;;20.71;51.72
58367;BME280;57745;42.524;12.052;2023-05-24T03:27:57;96285.94;;;20.74;51.66
58367;BME280;57745;42.524;12.052;2023-05-24T03:30:22;96289.13;;;20.50;51.85
58367;BME280;57745;42.524;12.052;2023-05-24T03:32:47;96287.66;;;20.66;51.44
58367;BME280;57745;42.524;12.052;2023-05-24T03:35:13;96295.47;;;20.73;51.51
58367;BME280;57745;42.524;12.052;2023-05-24T03:37:39;96293.94;;;20.61;51.96
58367;BME280;57745;42.524;12.052;2023-05-24T03:40:05;96292.44;;;20.71;51.38
58367;BME280;57745;42.524;12.052;2023-05-24T03:42:31;96287.16;;;20.67;52.15
58367;BME280;57745;42.524;12.052;2023-05-24T03:44:56;96289.66;;;20.65;52.36
58367;BME280;57745;42.524;12.052;2023-05-24T03:47:22;96294.91;;;20.52;52.20
58367;BME280;57745;42.524;12.052;2023-05-24T03:49:47;96297.94;;;20.60;52.10
58367;BME280;57745;42.524;12.052;2023-05-24T03:52:13;96295.69;;;20.64;51.94
58367;BME280;57745;42.524;12.052;2023-05-24T03:54:38;96289.66;;;20.65;51.86
58367;BME280;57745;42.524;12.052;2023-05-24T03:57:04;96298.44;;;20.64;51.68
58367;BME280;57745;42.524;12.052;2023-05-24T03:59:29;96297.97;;;20.71;51.46
58367;BME280;57745;42.524;12.052;2023-05-24T04:01:55;96295.22;;;20.82;51.34
58367;BME280;57745;42.524;12.052;2023-05-24T04:04:21;96285.69;;;20.72;51.63
58367;BME280;57745;42.524;12.052;2023-05-24T04:06:46;96290.69;;;20.68;52.03
58367;BME280;57745;42.524;12.052;2023-05-24T04:09:12;96285.44;;;20.64;52.11
58367;BME280;57745;42.524;12.052;2023-05-24T04:11:37;96293.44;;;20.62;52.27
58367;BME280;57745;42.524;12.052;2023-05-24T04:14:03;96300.97;;;20.73;52.10
58367;BME280;57745;42.524;12.052;2023-05-24T04:16:28;96289.72;;;20.76;52.01
58367;BME280;57745;42.524;12.052;2023-05-24T04:18:58;96295.94;;;20.66;52.33
58367;BME280;57745;42.524;12.052;2023-05-24T04:21:25;96310.22;;;20.70;51.90
58367;BME280;57745;42.524;12.052;2023-05-24T04:23:51;96310.19;;;20.59;52.49
58367;BME280;57745;42.524;12.052;2023-05-24T04:26:16;96300.66;;;20.54;52.36
58367;BME280;57745;42.524;12.052;2023-05-24T04:28:41;96302.00;;;20.75;51.75
58367;BME280;57745;42.524;12.052;2023-05-24T04:31:07;96304.00;;;20.75;52.30
58367;BME280;57745;42.524;12.052;2023-05-24T04:33:34;96312.50;;;20.71;52.53
58367;BME280;57745;42.524;12.052;2023-05-24T04:35:59;96309.50;;;20.75;52.52
58367;BME280;57745;42.524;12.052;2023-05-24T04:38:28;96304.25;;;20.83;52.53
58367;BME280;57745;42.524;12.052;2023-05-24T04:40:56;96295.47;;;20.78;52.45
58367;BME280;57745;42.524;12.052;2023-05-24T04:43:22;96296.22;;;20.73;52.68
58367;BME280;57745;42.524;12.052;2023-05-24T04:45:50;96301.22;;;20.64;53.12
58367;BME280;57745;42.524;12.052;2023-05-24T04:48:16;96295.22;;;20.76;52.73
58367;BME280;57745;42.524;12.052;2023-05-24T04:50:41;96298.75;;;20.83;52.83
58367;BME280;57745;42.524;12.052;2023-05-24T04:53:07;96297.53;;;20.89;52.57
58367;BME280;57745;42.524;12.052;2023-05-24T04:55:32;96309.47;;;20.69;53.29
58367;BME280;57745;42.524;12.052;2023-05-24T04:57:58;96301.53;;;20.94;52.61
58367;BME280;57745;42.524;12.052;2023-05-24T05:00:23;96311.25;;;20.72;53.12
58367;BME280;57745;42.524;12.052;2023-05-24T05:02:49;96308.53;;;20.84;52.70
58367;BME280;57745;42.524;12.052;2023-05-24T05:05:14;96305.50;;;20.82;52.79
58367;BME280;57745;42.524;12.052;2023-05-24T05:07:40;96311.06;;;20.98;52.21
58367;BME280;57745;42.524;12.052;2023-05-24T05:10:06;96303.53;;;20.93;51.94
58367;BME280;57745;42.524;12.052;2023-05-24T05:12:32;96314.28;;;20.91;52.38
58367;BME280;57745;42.524;12.052;2023-05-24T05:14:57;96312.56;;;20.88;52.33
58367;BME280;57745;42.524;12.052;2023-05-24T05:17:22;96310.03;;;20.90;52.22
58367;BME280;57745;42.524;12.052;2023-05-24T05:19:48;96317.06;;;20.91;52.45
58367;BME280;57745;42.524;12.052;2023-05-24T05:22:13;96311.78;;;20.88;52.79
58367;BME280;57745;42.524;12.052;2023-05-24T05:24:39;96318.56;;;20.92;52.74
58367;BME280;57745;42.524;12.052;2023-05-24T05:27:05;96308.81;;;20.97;52.78
58367;BME280;57745;42.524;12.052;2023-05-24T05:29:30;96310.31;;;20.98;52.77
58367;BME280;57745;42.524;12.052;2023-05-24T05:31:56;96309.53;;;20.92;52.86
58367;BME280;57745;42.524;12.052;2023-05-24T05:34:21;96319.56;;;20.95;53.04
58367;BME280;57745;42.524;12.052;2023-05-24T05:36:47;96326.06;;;20.92;52.99
58367;BME280;57745;42.524;12.052;2023-05-24T05:39:13;96318.56;;;20.92;53.17
58367;BME280;57745;42.524;12.052;2023-05-24T05:41:39;96323.09;;;21.06;52.82
58367;BME280;57745;42.524;12.052;2023-05-24T05:44:08;96328.56;;;20.84;53.29
58367;BME280;57745;42.524;12.052;2023-05-24T05:46:34;96329.06;;;20.77;53.55
58367;BME280;57745;42.524;12.052;2023-05-24T05:48:59;96330.06;;;20.85;53.55
58367;BME280;57745;42.524;12.052;2023-05-24T05:51:25;96335.34;;;20.89;53.50
58367;BME280;57745;42.524;12.052;2023-05-24T05:53:50;96340.59;;;20.87;53.54
58367;BME280;57745;42.524;12.052;2023-05-24T05:56:16;96334.81;;;20.79;54.01
58367;BME280;57745;42.524;12.052;2023-05-24T05:58:42;96348.41;;;20.99;53.54
58367;BME280;57745;42.524;12.052;2023-05-24T06:01:07;96341.41;;;21.04;53.31
58367;BME280;57745;42.524;12.052;2023-05-24T06:03:33;96336.41;;;21.08;53.49
58367;BME280;57745;42.524;12.052;2023-05-24T06:05:58;96337.13;;;20.97;53.76
58367;BME280;57745;42.524;12.052;2023-05-24T06:08:24;96334.66;;;21.10;53.46
58367;BME280;57745;42.524;12.052;2023-05-24T06:10:49;96333.91;;;21.10;53.35
58367;BME280;57745;42.524;12.052;2023-05-24T06:13:14;96336.63;;;20.99;54.14
58367;BME280;57745;42.524;12.052;2023-05-24T06:15:40;96337.34;;;20.94;54.09
58367;BME280;57745;42.524;12.052;2023-05-24T06:18:05;96341.19;;;21.13;53.69
58367;BME280;57745;42.524;12.052;2023-05-24T06:20:31;96339.34;;;20.82;55.09
58367;BME280;57745;42.524;12.052;2023-05-24T06:22:56;96337.41;;;21.10;53.83
58367;BME280;57745;42.524;12.052;2023-05-24T06:25:22;96342.66;;;21.08;53.72
58367;BME280;57745;42.524;12.052;2023-05-24T06:27:49;96338.91;;;21.17;53.82
58367;BME280;57745;42.524;12.052;2023-05-24T06:30:16;96341.94;;;21.13;53.97
58367;BME280;57745;42.524;12.052;2023-05-24T06:32:41;96338.91;;;21.17;53.78
58367;BME280;57745;42.524;12.052;2023-05-24T06:35:07;96342.66;;;21.08;54.60
58367;BME280;57745;42.524;12.052;2023-05-24T06:37:33;96341.19;;;21.13;54.19
58367;BME280;57745;42.524;12.052;2023-05-24T06:39:58;96335.69;;;21.19;54.44
58367;BME280;57745;42.524;12.052;2023-05-24T06:42:23;96343.16;;;21.07;54.90
58367;BME280;57745;42.524;12.052;2023-05-24T06:44:49;96336.16;;;21.17;54.73
58367;BME280;57745;42.524;12.052;2023-05-24T06:47:14;96342.97;;;21.27;54.41
58367;BME280;57745;42.524;12.052;2023-05-24T06:49:40;96343.72;;;21.28;54.22
58367;BME280;57745;42.524;12.052;2023-05-24T06:52:06;96350.25;;;21.30;54.08
58367;BME280;57745;42.524;12.052;2023-05-24T06:54:32;96340.66;;;21.09;55.02
58367;BME280;57745;42.524;12.052;2023-05-24T06:56:59;96349.66;;;20.98;55.43
58367;BME280;57745;42.524;12.052;2023-05-24T06:59:24;96351.69;;;21.14;54.74
58367;BME280;57745;42.524;12.052;2023-05-24T07:01:51;96353.00;;;21.25;54.42
58367;BME280;57745;42.524;12.052;2023-05-24T07:04:22;96357.03;;;21.24;54.26
58367;BME280;57745;42.524;12.052;2023-05-24T07:06:48;96352.00;;;21.28;54.11
58367;BME280;57745;42.524;12.052;2023-05-24T07:09:14;96350.00;;;21.28;54.53
58367;BME280;57745;42.524;12.052;2023-05-24T07:11:40;96349.75;;;21.21;54.95
58367;BME280;57745;42.524;12.052;2023-05-24T07:14:05;96346.25;;;21.26;54.51
58367;BME280;57745;42.524;12.052;2023-05-24T07:16:31;96350.75;;;21.29;54.67
58367;BME280;57745;42.524;12.052;2023-05-24T07:18:56;96354.50;;;21.31;55.18
58367;BME280;57745;42.524;12.052;2023-05-24T07:21:22;96343.16;;;21.07;56.10
58367;BME280;57745;42.524;12.052;2023-05-24T07:23:50;96349.25;;;21.28;54.96
58367;BME280;57745;42.524;12.052;2023-05-24T07:26:15;96346.75;;;21.30;55.00
58367;BME280;57745;42.524;12.052;2023-05-24T07:28:41;96352.75;;;21.39;55.25
58367;BME280;57745;42.524;12.052;2023-05-24T07:31:08;96351.03;;;21.47;54.94
58367;BME280;57745;42.524;12.052;2023-05-24T07:33:39;96348.25;;;21.42;55.17
58367;BME280;57745;42.524;12.052;2023-05-24T07:36:05;96344.75;;;21.41;55.52
58367;BME280;57745;42.524;12.052;2023-05-24T07:38:30;96348.50;;;21.44;55.67
58367;BME280;57745;42.524;12.052;2023-05-24T07:40:59;96349.53;;;21.46;55.33
58367;BME280;57745;42.524;12.052;2023-05-24T07:43:25;96348.03;;;21.68;54.77
58367;BME280;57745;42.524;12.052;2023-05-24T07:45:52;96344.75;;;21.58;55.45
58367;BME280;57745;42.524;12.052;2023-05-24T07:48:18;96339.75;;;21.57;55.31
58367;BME280;57745;42.524;12.052;2023-05-24T07:50:45;96340.47;;;21.51;55.45
58367;BME280;57745;42.524;12.052;2023-05-24T07:53:15;96342.25;;;21.49;55.81
58367;BME280;57745;42.524;12.052;2023-05-24T07:55:41;96334.97;;;21.40;56.09
58367;BME280;57745;42.524;12.052;2023-05-24T07:58:06;96344.75;;;21.58;55.49
58367;BME280;57745;42.524;12.052;2023-05-24T08:00:32;96352.03;;;21.56;56.00
58367;BME280;57745;42.524;12.052;2023-05-24T08:03:01;96342.00;;;21.58;56.03
58367;BME280;57745;42.524;12.052;2023-05-24T08:05:27;96339.25;;;21.47;56.54
58367;BME280;57745;42.524;12.052;2023-05-24T08:07:53;96345.28;;;21.62;56.22
58367;BME280;57745;42.524;12.052;2023-05-24T08:10:18;96342.00;;;21.58;56.33
58367;BME280;57745;42.524;12.052;2023-05-24T08:12:44;96346.75;;;21.52;56.42
58367;BME280;57745;42.524;12.052;2023-05-24T08:15:10;96345.75;;;21.55;56.29
58367;BME280;57745;42.524;12.052;2023-05-24T08:17:37;96345.28;;;21.51;56.55
58367;BME280;57745;42.524;12.052;2023-05-24T08:20:03;96348.75;;;21.51;56.75
58367;BME280;57745;42.524;12.052;2023-05-24T08:22:33;96339.97;;;21.53;56.80
58367;BME280;57745;42.524;12.052;2023-05-24T08:24:59;96346.50;;;21.56;56.53
58367;BME280;57745;42.524;12.052;2023-05-24T08:27:25;96347.50;;;21.64;56.61
58367;BME280;57745;42.524;12.052;2023-05-24T08:29:53;96346.03;;;21.63;56.36
58367;BME280;57745;42.524;12.052;2023-05-24T08:32:18;96346.78;;;21.69;55.93
58367;BME280;57745;42.524;12.052;2023-05-24T08:34:44;96354.81;;;21.61;56.74
58367;BME280;57745;42.524;12.052;2023-05-24T08:37:10;96344.50;;;21.56;56.91
58367;BME280;57745;42.524;12.052;2023-05-24T08:39:37;96352.03;;;21.61;57.03
58367;BME280;57745;42.524;12.052;2023-05-24T08:42:04;96359.81;;;21.68;57.08
58367;BME280;57745;42.524;12.052;2023-05-24T08:44:34;96357.06;;;21.68;57.35
58367;BME280;57745;42.524;12.052;2023-05-24T08:47:03;96356.78;;;21.77;56.06
58367;BME280;57745;42.524;12.052;2023-05-24T08:49:29;96355.28;;;21.54;57.18
58367;BME280;57745;42.524;12.052;2023-05-24T08:51:56;96362.06;;;21.70;57.07
58367;BME280;57745;42.524;12.052;2023-05-24T08:54:22;96359.81;;;21.57;57.40
58367;BME280;57745;42.524;12.052;2023-05-24T08:56:48;96355.28;;;21.76;57.26
58367;BME280;57745;42.524;12.052;2023-05-24T08:59:13;96351.03;;;21.64;57.13
58367;BME280;57745;42.524;12.052;2023-05-24T09:01:39;96357.06;;;21.74;56.97
58367;BME280;57745;42.524;12.052;2023-05-24T09:04:06;96351.03;;;21.70;56.72
58367;BME280;57745;42.524;12.052;2023-05-24T09:06:35;96349.03;;;21.76;56.76
58367;BME280;57745;42.524;12.052;2023-05-24T09:09:02;96352.03;;;21.72;56.78
58367;BME280;57745;42.524;12.052;2023-05-24T09:11:30;96360.81;;;21.76;56.79
58367;BME280;57745;42.524;12.052;2023-05-24T09:13:57;96355.78;;;21.80;56.42
58367;BME280;57745;42.524;12.052;2023-05-24T09:16:22;96350.03;;;21.78;56.65
58367;BME280;57745;42.524;12.052;2023-05-24T09:18:48;96353.28;;;21.82;56.70
58367;BME280;57745;42.524;12.052;2023-05-24T09:21:13;96350.78;;;21.84;56.72
58367;BME280;57745;42.524;12.052;2023-05-24T09:23:40;96359.31;;;21.81;56.52
58367;BME280;57745;42.524;12.052;2023-05-24T09:26:06;96355.56;;;21.84;55.97
58367;BME280;57745;42.524;12.052;2023-05-24T09:28:32;96358.31;;;21.78;55.98
58367;BME280;57745;42.524;12.052;2023-05-24T09:30:59;96348.28;;;21.81;55.92
58367;BME280;57745;42.524;12.052;2023-05-24T09:33:29;96348.28;;;21.86;56.30
58367;BME280;57745;42.524;12.052;2023-05-24T09:36:01;96347.00;;;21.82;56.28
58367;BME280;57745;42.524;12.052;2023-05-24T09:38:27;96345.50;;;21.81;56.11
58367;BME280;57745;42.524;12.052;2023-05-24T09:41:04;96355.78;;;21.92;56.27
58367;BME280;57745;42.524;12.052;2023-05-24T09:43:31;96351.53;;;21.91;55.97
58367;BME280;57745;42.524;12.052;2023-05-24T09:46:01;96354.53;;;21.93;55.96
58367;BME280;57745;42.524;12.052;2023-05-24T09:48:27;96357.28;;;21.93;56.36
58367;BME280;57745;42.524;12.052;2023-05-24T09:51:03;96346.25;;;21.93;56.20
58367;BME280;57745;42.524;12.052;2023-05-24T09:53:31;96351.78;;;21.93;56.00
58367;BME280;57745;42.524;12.052;2023-05-24T09:55:58;96348.03;;;22.01;55.30
58367;BME280;57745;42.524;12.052;2023-05-24T09:58:29;96352.78;;;21.90;55.43
58367;BME280;57745;42.524;12.052;2023-05-24T10:01:07;96345.00;;;21.94;55.21
58367;BME280;57745;42.524;12.052;2023-05-24T10:03:35;96344.28;;;21.99;55.21
58367;BME280;57745;42.524;12.052;2023-05-24T10:06:02;96340.47;;;21.96;55.11
58367;BME280;57745;42.524;12.052;2023-05-24T10:08:33;96339.22;;;22.03;54.77
58367;BME280;57745;42.524;12.052;2023-05-24T10:11:01;96337.72;;;22.02;54.47
58367;BME280;57745;42.524;12.052;2023-05-24T10:13:27;96334.47;;;21.98;54.83
58367;BME280;57745;42.524;12.052;2023-05-24T10:15:53;96348.03;;;22.12;54.68
58367;BME280;57745;42.524;12.052;2023-05-24T10:18:18;96339.47;;;22.05;54.53
58367;BME280;57745;42.524;12.052;2023-05-24T10:20:44;96336.47;;;22.03;54.47
58367;BME280;57745;42.524;12.052;2023-05-24T10:23:14;96340.00;;;22.09;54.53
58367;BME280;57745;42.524;12.052;2023-05-24T10:25:46;96335.19;;;22.15;54.23
58367;BME280;57745;42.524;12.052;2023-05-24T10:28:15;96335.69;;;22.19;54.34
58367;BME280;57745;42.524;12.052;2023-05-24T10:33:30;96333.69;;;22.19;53.70
58367;BME280;57745;42.524;12.052;2023-05-24T10:35:57;96330.16;;;22.25;53.79
58367;BME280;57745;42.524;12.052;2023-05-24T10:38:23;96324.41;;;22.17;53.71
58367;BME280;57745;42.524;12.052;2023-05-24T10:40:49;96318.84;;;22.28;54.38
58367;BME280;57745;42.524;12.052;2023-05-24T10:43:16;96319.34;;;22.32;54.62
58367;BME280;57745;42.524;12.052;2023-05-24T10:45:50;96317.13;;;22.25;54.94
58367;BME280;57745;42.524;12.052;2023-05-24T10:50:42;96323.66;;;22.22;55.43
58367;BME280;57745;42.524;12.052;2023-05-24T10:53:12;96312.59;;;22.22;55.60
58367;BME280;57745;42.524;12.052;2023-05-24T10:55:53;96294.75;;;22.23;55.44
58367;BME280;57745;42.524;12.052;2023-05-24T10:58:26;96301.28;;;22.20;55.56
58367;BME280;57745;42.524;12.052;2023-05-24T11:00:51;96300.00;;;22.32;55.25
58367;BME280;57745;42.524;12.052;2023-05-24T11:03:17;96296.50;;;22.26;55.33
58367;BME280;57745;42.524;12.052;2023-05-24T11:08:30;96305.03;;;22.28;55.29
58367;BME280;57745;42.524;12.052;2023-05-24T11:11:12;96294.50;;;22.21;54.48
58367;BME280;57745;42.524;12.052;2023-05-24T11:13:40;96303.09;;;22.12;54.49
58367;BME280;57745;42.524;12.052;2023-05-24T11:16:06;96290.50;;;22.22;54.12
58367;BME280;57745;42.524;12.052;2023-05-24T11:18:32;96288.44;;;22.28;54.08
58367;BME280;57745;42.524;12.052;2023-05-24T11:21:04;96291.47;;;22.30;53.86
58367;BME280;57745;42.524;12.052;2023-05-24T11:23:31;96291.25;;;22.23;54.37
58367;BME280;57745;42.524;12.052;2023-05-24T11:25:57;96291.47;;;22.30;54.23
58367;BME280;57745;42.524;12.052;2023-05-24T11:28:23;96288.94;;;22.32;54.68
58367;BME280;57745;42.524;12.052;2023-05-24T11:30:48;96278.91;;;22.29;55.10
58367;BME280;57745;42.524;12.052;2023-05-24T11:33:19;96289.19;;;22.34;54.96
58367;BME280;57745;42.524;12.052;2023-05-24T11:35:47;96274.59;;;22.39;55.17
58367;BME280;57745;42.524;12.052;2023-05-24T11:38:15;96273.63;;;22.37;55.27
58367;BME280;57745;42.524;12.052;2023-05-24T11:40:41;96275.09;;;22.38;54.13
58367;BME280;57745;42.524;12.052;2023-05-24T11:43:15;96270.31;;;22.38;52.93
58367;BME280;57745;42.524;12.052;2023-05-24T11:45:42;96265.56;;;22.39;52.26
58367;BME280;57745;42.524;12.052;2023-05-24T11:48:09;96267.03;;;22.45;52.23
58367;BME280;57745;42.524;12.052;2023-05-24T11:50:42;96263.78;;;22.47;52.52
58367;BME280;57745;42.524;12.052;2023-05-24T11:53:12;96255.50;;;22.47;52.78
58367;BME280;57745;42.524;12.052;2023-05-24T11:55:39;96253.50;;;22.42;52.88
58367;BME280;57745;42.524;12.052;2023-05-24T11:58:20;96255.25;;;22.39;52.94
58367;BME280;57745;42.524;12.052;2023-05-24T12:00:47;96238.41;;;22.48;53.14
58367;BME280;57745;42.524;12.052;2023-05-24T12:03:12;96250.22;;;22.43;53.06
58367;BME280;57745;42.524;12.052;2023-05-24T12:05:38;96255.50;;;22.41;53.24
58367;BME280;57745;42.524;12.052;2023-05-24T12:08:05;96251.22;;;22.40;53.15
58367;BME280;57745;42.524;12.052;2023-05-24T12:10:34;96242.44;;;22.42;52.70
58367;BME280;57745;42.524;12.052;2023-05-24T12:13:02;96244.44;;;22.47;52.66
58367;BME280;57745;42.524;12.052;2023-05-24T12:15:28;96243.19;;;22.42;53.03
58367;BME280;57745;42.524;12.052;2023-05-24T12:17:54;96230.63;;;22.41;53.06
58367;BME280;57745;42.524;12.052;2023-05-24T12:20:20;96241.69;;;22.41;52.99
58367;BME280;57745;42.524;12.052;2023-05-24T12:22:53;96243.19;;;22.42;53.48
58367;BME280;57745;42.524;12.052;2023-05-24T12:25:20;96236.16;;;22.47;53.88
58367;BME280;57745;42.524;12.052;2023-05-24T12:27:51;96235.63;;;22.48;53.91
58367;BME280;57745;42.524;12.052;2023-05-24T12:30:21;96238.66;;;22.45;54.44
58367;BME280;57745;42.524;12.052;2023-05-24T12:32:47;96237.41;;;22.46;54.57
58367;BME280;57745;42.524;12.052;2023-05-24T12:35:13;96243.13;;;22.53;54.63
58367;BME280;57745;42.524;12.052;2023-05-24T12:37:41;96241.44;;;22.45;54.76
58367;BME280;57745;42.524;12.052;2023-05-24T12:40:17;96230.31;;;22.50;54.62
58367;BME280;57745;42.524;12.052;2023-05-24T12:42:55;96230.88;;;22.43;55.26
58367;BME280;57745;42.524;12.052;2023-05-24T12:45:22;96230.88;;;22.49;55.25
58367;BME280;57745;42.524;12.052;2023-05-24T12:47:50;96226.09;;;22.49;55.50
58367;BME280;57745;42.524;12.052;2023-05-24T12:50:17;96228.63;;;22.42;55.90
58367;BME280;57745;42.524;12.052;2023-05-24T12:52:43;96223.84;;;22.48;55.67
58367;BME280;57745;42.524;12.052;2023-05-24T12:55:14;96217.25;;;22.51;55.75
58367;BME280;57745;42.524;12.052;2023-05-24T12:57:41;96217.56;;;22.47;55.76
58367;BME280;57745;42.524;12.052;2023-05-24T13:00:10;96210.97;;;22.50;56.17
58367;BME280;57745;42.524;12.052;2023-05-24T13:02:36;96215.75;;;22.55;55.92
58367;BME280;57745;42.524;12.052;2023-05-24T13:05:02;96208.75;;;22.49;55.79
58367;BME280;57745;42.524;12.052;2023-05-24T13:07:29;96200.16;;;22.58;55.49
58367;BME280;57745;42.524;12.052;2023-05-24T13:09:55;96215.22;;;22.57;55.63
58367;BME280;57745;42.524;12.052;2023-05-24T13:12:20;96209.50;;;22.49;56.07